createdAt,value
2023-04-02T00:01:18.519Z,30.00
2023-04-02T00:03:53.821Z,30.58
2023-04-02T00:06:33.163Z,28.58
2023-04-02T00:09:22.922Z,30.15
2023-04-02T00:11:55.936Z,33.08
2023-04-02T00:14:27.751Z,30.85
2023-04-02T00:16:58.225Z,28.42
2023-04-02T00:19:36.059Z,34.38
2023-04-02T00:22:08.030Z,27.27
2023-04-02T00:24:38.629Z,29.98
2023-04-02T00:27:11.225Z,28.42
2023-04-02T00:29:53.518Z,31.73
2023-04-02T00:32:31.182Z,30.05
2023-04-02T00:35:00.620Z,33.90
2023-04-02T00:37:39.007Z,30.92
2023-04-02T00:40:21.135Z,28.77
2023-04-02T00:42:50.392Z,28.42
2023-04-02T00:45:32.180Z,26.98
2023-04-02T00:48:13.871Z,32.70
2023-04-02T00:50:45.130Z,28.13
2023-04-02T00:53:39.344Z,28.85
2023-04-02T00:56:16.944Z,30.83
2023-04-02T00:58:45.958Z,29.73
2023-04-02T01:01:19.886Z,27.13
2023-04-02T01:03:58.310Z,28.52
2023-04-02T01:06:31.205Z,27.10
2023-04-02T01:09:34.238Z,29.98
2023-04-02T01:12:25.026Z,30.83
2023-04-02T01:15:18.813Z,35.65
2023-04-02T01:18:46.528Z,31.52
2023-04-02T01:21:42.759Z,28.63
2023-04-02T01:24:14.856Z,30.52
2023-04-02T01:26:44.814Z,31.45
2023-04-02T01:29:33.320Z,33.28
2023-04-02T01:32:05.612Z,34.42
2023-04-02T01:34:35.127Z,32.35
2023-04-02T01:37:11.248Z,33.22
2023-04-02T01:40:06.773Z,29.27
2023-04-02T01:42:48.948Z,32.85
2023-04-02T01:45:21.971Z,30.45
2023-04-02T01:47:51.603Z,32.35
2023-04-02T01:50:33.652Z,34.97
2023-04-02T01:53:07.357Z,35.30
2023-04-02T01:55:49.935Z,35.50
2023-04-02T01:58:21.728Z,35.00
2023-04-02T02:01:14.820Z,32.75
2023-04-02T02:03:45.121Z,32.70
2023-04-02T02:06:16.245Z,31.67
2023-04-02T02:09:00.046Z,34.65
2023-04-02T02:11:30.761Z,30.83
2023-04-02T02:14:05.800Z,33.25
2023-04-02T02:16:42.072Z,32.00
2023-04-02T02:19:32.951Z,35.03
2023-04-02T02:22:26.471Z,34.33
2023-04-02T02:24:56.155Z,35.35
2023-04-02T02:27:46.966Z,32.70
2023-04-02T02:30:22.521Z,36.53
2023-04-02T02:32:58.721Z,38.78
2023-04-02T02:35:43.121Z,33.80
2023-04-02T02:38:30.728Z,34.55
2023-04-02T02:41:12.918Z,33.95
2023-04-02T02:43:47.710Z,35.92
2023-04-02T02:46:21.057Z,36.83
2023-04-02T02:48:51.285Z,33.03
2023-04-02T02:51:27.721Z,36.88
2023-04-02T02:54:03.301Z,33.67
2023-04-02T02:56:37.013Z,33.25
2023-04-02T02:59:08.740Z,34.47
2023-04-02T03:01:43.674Z,35.17
2023-04-02T03:04:12.095Z,35.88
2023-04-02T03:06:42.261Z,31.98
2023-04-02T03:09:31.508Z,36.28
2023-04-02T03:12:25.934Z,35.10
2023-04-02T03:15:21.789Z,38.70
2023-04-02T03:18:02.100Z,36.83
2023-04-02T03:20:55.783Z,38.47
2023-04-02T03:23:27.542Z,33.83
2023-04-02T03:26:16.306Z,32.45
2023-04-02T03:28:52.537Z,34.47
2023-04-02T03:31:30.066Z,37.05
2023-04-02T03:34:02.520Z,37.83
2023-04-02T03:36:38.664Z,35.97
2023-04-02T03:39:17.924Z,36.55
2023-04-02T03:42:02.659Z,32.42
2023-04-02T03:44:30.750Z,35.72
2023-04-02T03:47:09.251Z,32.95
2023-04-02T03:49:44.605Z,35.25
2023-04-02T03:52:18.145Z,33.60
2023-04-02T03:54:54.233Z,36.08
2023-04-02T03:57:46.745Z,33.35
2023-04-02T04:00:39.248Z,36.85
2023-04-02T04:03:17.853Z,34.58
2023-04-02T04:05:52.373Z,34.75
2023-04-02T04:08:29.482Z,37.80
2023-04-02T04:11:01.507Z,29.25
2023-04-02T04:14:11.775Z,37.50
2023-04-02T04:17:14.168Z,37.20
2023-04-02T04:20:15.272Z,39.05
2023-04-02T04:22:43.725Z,42.10
2023-04-02T04:25:34.005Z,33.80
2023-04-02T04:28:38.567Z,35.33
2023-04-02T04:31:27.229Z,37.70
2023-04-02T04:34:03.995Z,32.72
2023-04-02T04:36:54.577Z,40.72
2023-04-02T04:39:47.259Z,38.00
2023-04-02T04:42:24.831Z,36.08
2023-04-02T04:45:04.007Z,33.75
2023-04-02T04:47:39.204Z,34.00
2023-04-02T04:50:19.525Z,39.72
2023-04-02T04:52:47.616Z,36.40
2023-04-02T04:55:30.877Z,37.03
2023-04-02T05:01:11.530Z,33.45
2023-04-02T05:03:58.407Z,35.42
2023-04-02T05:06:51.263Z,37.78
2023-04-02T05:09:42.315Z,30.45
2023-04-02T05:12:35.617Z,30.38
2023-04-02T05:15:31.553Z,27.75
2023-04-02T05:18:37.613Z,29.23
2023-04-02T05:21:18.821Z,30.10
2023-04-02T05:24:25.122Z,26.95
2023-04-02T05:27:01.108Z,24.30
2023-04-02T05:29:36.436Z,24.08
2023-04-02T05:32:14.222Z,21.23
2023-04-02T05:34:48.963Z,24.38
2023-04-02T05:37:21.706Z,17.52
2023-04-02T05:40:03.523Z,22.83
2023-04-02T05:42:36.028Z,20.10
2023-04-02T05:45:31.513Z,23.35
2023-04-02T05:48:08.220Z,24.08
2023-04-02T05:50:47.969Z,24.73
2023-04-02T05:53:40.408Z,21.40
2023-04-02T05:56:16.185Z,22.05
2023-04-02T05:58:51.856Z,24.92
2023-04-02T06:01:52.173Z,26.15
2023-04-02T06:04:57.914Z,23.50
2023-04-02T06:07:41.989Z,26.67
2023-04-02T06:10:25.007Z,25.45
2023-04-02T06:13:06.167Z,26.42
2023-04-02T06:15:39.087Z,27.83
2023-04-02T06:18:24.650Z,26.63
2023-04-02T06:20:53.926Z,32.35
2023-04-02T06:23:47.056Z,28.70
2023-04-02T06:26:35.553Z,27.05
2023-04-02T06:29:25.920Z,29.90
2023-04-02T06:31:59.581Z,28.55
2023-04-02T06:34:31.186Z,26.42
2023-04-02T06:37:30.555Z,31.02
2023-04-02T06:40:43.261Z,30.33
2023-04-02T06:43:41.459Z,31.45
2023-04-02T06:46:32.780Z,29.63
2023-04-02T06:49:24.817Z,26.70
2023-04-02T06:52:01.185Z,29.85
2023-04-02T06:54:32.933Z,32.25
2023-04-02T06:57:08.089Z,27.90
2023-04-02T07:02:28.164Z,27.75
2023-04-02T07:05:03.952Z,32.60
2023-04-02T07:07:34.151Z,30.00
2023-04-02T07:10:07.207Z,29.80
2023-04-02T07:12:36.012Z,30.88
2023-04-02T07:15:05.901Z,27.10
2023-04-02T07:17:34.003Z,24.80
2023-04-02T07:20:02.237Z,27.40
2023-04-02T07:22:31.663Z,26.15
2023-04-02T07:25:15.082Z,27.92
2023-04-02T07:27:43.010Z,24.58
2023-04-02T07:30:11.336Z,22.33
2023-04-02T07:32:39.455Z,27.10
2023-04-02T07:35:08.475Z,26.70
2023-04-02T07:37:37.886Z,24.52
2023-04-02T07:40:09.340Z,26.27
2023-04-02T07:42:37.278Z,25.08
2023-04-02T07:45:06.209Z,26.10
2023-04-02T07:47:34.090Z,29.80
2023-04-02T07:50:01.996Z,29.35
2023-04-02T07:52:29.802Z,23.95
2023-04-02T07:54:57.728Z,25.10
2023-04-02T07:57:25.754Z,24.23
2023-04-02T07:59:56.713Z,29.20
2023-04-02T08:02:26.815Z,24.02
2023-04-02T08:04:54.826Z,21.27
2023-04-02T08:07:22.903Z,30.52
2023-04-02T08:09:50.860Z,21.75
2023-04-02T08:12:18.704Z,22.67
2023-04-02T08:14:47.000Z,26.55
2023-04-02T08:17:14.966Z,28.50
2023-04-02T08:19:54.245Z,25.30
2023-04-02T08:22:23.357Z,24.17
2023-04-02T08:24:51.267Z,23.30
2023-04-02T08:27:19.200Z,23.50
2023-04-02T08:29:47.075Z,22.65
2023-04-02T08:32:16.546Z,23.73
2023-04-02T08:34:45.620Z,24.35
2023-04-02T08:37:14.412Z,23.00
2023-04-02T08:39:42.399Z,19.20
2023-04-02T08:42:24.771Z,19.35
2023-04-02T08:45:23.083Z,17.20
2023-04-02T08:47:56.337Z,15.25
2023-04-02T08:50:33.022Z,13.95
2023-04-02T08:53:03.448Z,10.85
2023-04-02T08:56:06.027Z,11.55
2023-04-02T08:58:41.596Z,12.32
2023-04-02T09:01:41.656Z,12.10
2023-04-02T09:04:20.233Z,15.95
2023-04-02T09:06:51.626Z,15.73
2023-04-02T09:09:21.036Z,10.63
2023-04-02T09:12:04.642Z,12.68
2023-04-02T09:14:44.749Z,9.80
2023-04-02T09:17:23.128Z,15.05
2023-04-02T09:19:53.974Z,10.77
2023-04-02T09:22:31.835Z,16.17
2023-04-02T09:25:02.903Z,13.05
2023-04-02T09:27:34.694Z,16.23
2023-04-02T09:30:58.655Z,10.05
2023-04-02T09:33:44.370Z,11.27
2023-04-02T09:36:38.082Z,9.40
2023-04-02T09:39:17.923Z,18.45
2023-04-02T09:41:55.803Z,9.40
2023-04-02T09:44:40.206Z,11.00
2023-04-02T09:47:25.979Z,13.00
2023-04-02T09:50:15.739Z,11.00
2023-04-02T09:52:49.289Z,10.35
2023-04-02T09:55:22.511Z,14.50
2023-04-02T09:57:52.399Z,8.43
2023-04-02T10:00:32.585Z,9.85
2023-04-02T10:03:30.900Z,12.85
2023-04-02T10:06:18.098Z,10.02
2023-04-02T10:08:48.867Z,12.18
2023-04-02T10:11:46.697Z,9.88
2023-04-02T10:14:37.061Z,10.13
2023-04-02T10:17:20.294Z,11.00
2023-04-02T10:19:52.640Z,9.68
2023-04-02T10:22:22.762Z,13.00
2023-04-02T10:24:51.408Z,12.98
2023-04-02T10:27:41.908Z,10.95
2023-04-02T10:30:28.895Z,14.50
2023-04-02T10:33:20.453Z,14.43
2023-04-02T10:36:02.044Z,14.55
2023-04-02T10:38:59.053Z,15.95
2023-04-02T10:41:30.888Z,15.77
2023-04-02T10:44:16.718Z,15.85
2023-04-02T10:47:12.455Z,15.35
2023-04-02T10:50:14.758Z,11.93
2023-04-02T10:52:56.453Z,14.85
2023-04-02T10:55:29.273Z,11.70
2023-04-02T10:58:06.290Z,14.77
2023-04-02T11:00:46.309Z,16.48
2023-04-02T11:03:30.343Z,18.17
2023-04-02T11:06:02.575Z,14.30
2023-04-02T11:08:43.578Z,11.30
2023-04-02T11:11:23.665Z,11.95
2023-04-02T11:14:13.004Z,10.07
2023-04-02T11:16:44.428Z,21.40
2023-04-02T11:19:18.738Z,12.93
2023-04-02T11:21:57.941Z,16.83
2023-04-02T11:24:37.823Z,18.42
2023-04-02T11:27:14.879Z,13.10
2023-04-02T11:29:47.119Z,13.50
2023-04-02T11:32:22.942Z,13.15
2023-04-02T11:35:05.143Z,11.38
2023-04-02T11:37:45.059Z,12.35
2023-04-02T11:40:16.675Z,12.32
2023-04-02T11:43:01.266Z,10.43
2023-04-02T11:45:33.750Z,6.65
2023-04-02T11:48:17.664Z,1.25
2023-04-02T11:50:46.589Z,1.88
2023-04-02T11:53:21.281Z,0.70
2023-04-02T11:56:04.221Z,0.38
2023-04-02T11:58:50.204Z,5.57
2023-04-02T12:01:31.820Z,4.07
2023-04-02T12:04:31.096Z,0.77
2023-04-02T12:07:18.984Z,2.92
2023-04-02T12:09:59.525Z,1.08
2023-04-02T12:12:33.381Z,2.30
2023-04-02T12:15:01.630Z,1.40
2023-04-02T12:17:37.468Z,1.23
2023-04-02T12:20:28.965Z,1.75
2023-04-02T12:22:58.664Z,1.35
2023-04-02T12:25:40.153Z,1.33
2023-04-02T12:28:12.328Z,1.95
2023-04-02T12:30:41.758Z,0.60
2023-04-02T12:33:33.932Z,1.98
2023-04-02T12:36:04.496Z,1.05
2023-04-02T12:38:37.040Z,1.23
2023-04-02T12:41:19.307Z,1.38
2023-04-02T12:43:47.549Z,1.27
2023-04-02T12:46:15.739Z,0.82
2023-04-02T12:48:43.958Z,0.50
2023-04-02T12:51:12.103Z,0.98
2023-04-02T12:53:42.755Z,0.80
2023-04-02T12:56:20.196Z,2.17
2023-04-02T12:58:59.376Z,0.82
2023-04-02T13:01:30.944Z,3.03
2023-04-02T13:04:05.048Z,0.52
2023-04-02T13:09:04.141Z,1.05
2023-04-02T13:11:41.941Z,0.68
2023-04-02T13:14:20.141Z,0.60
2023-04-02T13:16:50.839Z,0.50
2023-04-02T13:19:26.129Z,2.40
2023-04-02T13:21:56.038Z,0.43
2023-04-02T13:24:31.683Z,0.50
2023-04-02T13:27:02.051Z,0.70
2023-04-02T13:29:32.212Z,0.40
2023-04-02T13:32:02.563Z,0.95
2023-04-02T13:34:31.208Z,0.80
2023-04-02T13:37:00.062Z,0.50
2023-04-02T13:39:30.412Z,0.30
2023-04-02T13:42:00.579Z,1.02
2023-04-02T13:44:31.791Z,0.82
2023-04-02T13:47:00.877Z,0.57
2023-04-02T13:49:29.529Z,0.70
2023-04-02T13:52:05.932Z,0.20
2023-04-02T13:54:43.461Z,0.47
2023-04-02T14:27:57.119Z,0.40
2023-04-02T14:30:46.924Z,0.28
2023-04-02T14:33:30.264Z,0.82
2023-04-02T14:36:09.063Z,0.93
2023-04-02T14:38:44.905Z,0.60
2023-04-02T14:41:30.338Z,1.65
2023-04-02T14:44:07.560Z,0.22
2023-04-02T14:46:38.269Z,0.45
2023-04-02T14:49:22.714Z,0.30
2023-04-02T14:55:03.469Z,0.20
2023-04-02T14:57:52.807Z,0.52
2023-04-02T15:00:41.428Z,0.30
2023-04-02T15:03:18.547Z,0.43
2023-04-02T15:05:48.992Z,0.73
2023-04-02T15:08:22.246Z,0.25
2023-04-02T15:11:02.993Z,1.13
2023-04-02T15:13:40.134Z,1.20
2023-04-02T15:16:21.349Z,1.80
2023-04-02T15:19:01.489Z,0.38
2023-04-02T15:21:57.505Z,0.25
2023-04-02T15:24:59.810Z,0.38
2023-04-02T15:28:09.848Z,0.40
2023-04-02T15:30:43.356Z,0.30
2023-04-02T15:33:30.002Z,0.30
2023-04-02T15:36:21.665Z,0.40
2023-04-02T15:38:56.661Z,2.72
2023-04-02T15:41:36.372Z,5.10
2023-04-02T15:44:15.242Z,2.05
2023-04-02T15:46:46.636Z,2.15
2023-04-02T15:49:32.877Z,2.05
2023-04-02T15:52:22.630Z,2.22
2023-04-02T15:55:02.636Z,2.67
2023-04-02T15:58:05.735Z,2.38
2023-04-02T16:00:53.932Z,4.05
2023-04-02T16:03:57.212Z,1.42
2023-04-02T16:06:53.437Z,3.25
2023-04-02T16:09:31.244Z,2.20
2023-04-02T16:12:11.604Z,1.70
2023-04-02T16:14:41.601Z,2.72
2023-04-02T16:17:25.704Z,1.23
2023-04-02T16:20:05.715Z,2.22
2023-04-02T16:22:38.023Z,1.40
2023-04-02T16:25:19.741Z,3.47
2023-04-02T16:27:59.835Z,2.10
2023-04-02T16:30:28.510Z,2.60
2023-04-02T16:33:23.490Z,2.10
2023-04-02T16:36:03.125Z,1.63
2023-04-02T16:38:39.592Z,1.30
2023-04-02T16:41:31.789Z,1.48
2023-04-02T16:44:18.702Z,0.80
2023-04-02T16:47:12.174Z,1.45
2023-04-02T16:49:53.183Z,1.33
2023-04-02T16:52:46.408Z,1.33
2023-04-02T16:55:33.011Z,0.82
2023-04-02T16:58:28.132Z,0.50
2023-04-02T17:01:05.266Z,0.38
2023-04-02T17:03:39.582Z,0.90
2023-04-02T17:06:13.693Z,0.25
2023-04-02T17:08:50.796Z,0.90
2023-04-02T17:11:41.130Z,0.52
2023-04-02T17:14:38.737Z,0.95
2023-04-02T17:17:18.182Z,4.28
2023-04-02T17:19:49.004Z,13.48
2023-04-02T17:22:22.555Z,5.78
2023-04-02T17:24:59.149Z,3.40
2023-04-02T17:27:37.881Z,3.90
2023-04-02T17:30:17.306Z,4.78
2023-04-02T17:32:45.686Z,3.00
2023-04-02T17:35:33.495Z,3.15
2023-04-02T17:38:13.421Z,2.05
2023-04-02T17:41:08.503Z,1.95
2023-04-02T17:43:57.792Z,3.35
2023-04-02T17:46:48.748Z,1.98
2023-04-02T17:49:28.893Z,1.88
2023-04-02T17:52:24.320Z,2.63
2023-04-02T17:55:05.349Z,2.45
2023-04-02T17:57:52.341Z,2.13
2023-04-02T18:00:37.471Z,2.35
2023-04-02T18:03:49.619Z,1.65
2023-04-02T18:06:25.433Z,3.25
2023-04-02T18:09:31.181Z,3.13
2023-04-02T18:12:01.958Z,3.30
2023-04-02T18:14:56.432Z,2.97
2023-04-02T18:17:33.028Z,3.75
2023-04-02T18:20:20.867Z,4.97
2023-04-02T18:23:06.444Z,5.85
2023-04-02T18:26:00.910Z,4.22
2023-04-02T18:28:44.162Z,4.82
2023-04-02T18:31:28.635Z,6.68
2023-04-02T18:34:11.775Z,6.95
2023-04-02T18:37:06.743Z,7.63
2023-04-02T18:39:41.281Z,10.43
2023-04-02T18:42:34.657Z,8.65
2023-04-02T18:45:33.033Z,8.88
2023-04-02T18:48:22.515Z,9.88
2023-04-02T18:50:50.452Z,10.55
2023-04-02T18:53:23.204Z,12.27
2023-04-02T18:56:07.183Z,11.27
2023-04-02T18:58:43.042Z,12.18
2023-04-02T19:01:16.296Z,11.05
2023-04-02T19:03:50.638Z,12.07
2023-04-02T19:06:31.145Z,11.27
2023-04-02T19:09:08.200Z,11.25
2023-04-02T19:11:36.569Z,13.65
2023-04-02T19:14:17.504Z,22.52
2023-04-02T19:16:45.616Z,10.75
2023-04-02T19:19:23.197Z,12.52
2023-04-02T19:21:51.823Z,9.00
2023-04-02T19:24:56.221Z,11.48
2023-04-02T19:27:48.077Z,10.38
2023-04-02T19:30:39.147Z,8.10
2023-04-02T19:33:25.907Z,10.40
2023-04-02T19:36:01.792Z,9.32
2023-04-02T19:38:41.779Z,11.63
2023-04-02T19:41:09.769Z,10.13
2023-04-02T19:43:37.694Z,11.57
2023-04-02T19:46:06.505Z,11.32
2023-04-02T19:48:48.402Z,10.88
2023-04-02T19:51:16.560Z,11.02
2023-04-02T19:53:44.574Z,10.52
2023-04-02T19:56:12.630Z,6.50
2023-04-02T19:58:40.610Z,8.73
2023-04-02T20:01:08.986Z,6.57
2023-04-02T20:03:36.992Z,7.35
2023-04-02T20:06:05.644Z,6.32
2023-04-02T20:08:33.772Z,7.85
2023-04-02T20:11:01.830Z,6.78
2023-04-02T20:13:29.782Z,6.75
2023-04-02T20:16:02.230Z,6.05
2023-04-02T20:18:32.305Z,4.43
2023-04-02T20:21:04.797Z,6.97
2023-04-02T20:23:34.045Z,4.82
2023-04-02T20:26:04.089Z,4.10
2023-04-02T20:28:32.371Z,5.90
2023-04-02T20:31:18.913Z,4.18
2023-04-02T20:33:48.250Z,8.13
2023-04-02T20:36:18.140Z,6.68
2023-04-02T20:38:46.110Z,7.72
2023-04-02T20:41:16.929Z,5.28
2023-04-02T20:43:45.225Z,5.63
2023-04-02T20:46:13.658Z,4.95
2023-04-02T20:48:41.841Z,5.78
2023-04-02T20:51:13.392Z,6.10
2023-04-02T20:53:42.397Z,4.25
2023-04-02T20:56:17.071Z,4.00
2023-04-02T20:58:45.208Z,4.10
2023-04-02T21:01:27.363Z,6.43
2023-04-02T21:04:02.978Z,5.20
2023-04-02T21:06:33.988Z,2.95
2023-04-02T21:09:07.032Z,4.32
2023-04-02T21:11:37.568Z,3.60
2023-04-02T21:14:05.769Z,2.50
2023-04-02T21:16:35.871Z,6.55
2023-04-02T21:19:07.507Z,2.90
2023-04-02T21:21:37.528Z,4.07
2023-04-02T21:24:08.132Z,3.72
2023-04-02T21:26:39.342Z,6.05
2023-04-02T21:29:07.498Z,3.92
2023-04-02T21:31:41.813Z,3.50
2023-04-02T21:34:14.485Z,4.57
2023-04-02T21:36:47.577Z,4.45
2023-04-02T21:39:21.767Z,3.17
2023-04-02T21:44:21.982Z,4.40
2023-04-02T21:46:54.108Z,3.20
2023-04-02T21:49:26.314Z,9.23
2023-04-02T21:51:54.313Z,3.28
2023-04-02T21:54:22.368Z,3.08
2023-04-02T21:56:50.641Z,3.03
2023-04-02T21:59:21.123Z,2.22
2023-04-02T22:01:51.228Z,3.03
2023-04-02T22:04:24.544Z,4.28
2023-04-02T22:06:53.432Z,5.43
2023-04-02T22:09:23.911Z,3.10
2023-04-02T22:11:55.601Z,2.70
2023-04-02T22:14:23.724Z,2.65
2023-04-02T22:16:52.349Z,4.15
2023-04-02T22:19:21.133Z,4.70
2023-04-02T22:21:49.173Z,3.13
2023-04-02T22:24:25.257Z,3.00
2023-04-02T22:26:53.843Z,3.45
2023-04-02T22:29:21.884Z,3.40
2023-04-02T22:31:49.847Z,2.63
2023-04-02T22:34:17.733Z,4.30
2023-04-02T22:36:45.533Z,3.40
2023-04-02T22:39:13.495Z,3.55
2023-04-02T22:41:41.462Z,4.40
2023-04-02T22:44:14.357Z,4.28
2023-04-02T22:46:42.393Z,4.00
2023-04-02T22:49:11.864Z,5.00
2023-04-02T22:51:39.794Z,4.18
2023-04-02T22:54:07.693Z,4.30
2023-04-02T22:56:37.691Z,2.72
2023-04-02T22:59:06.004Z,3.15
2023-04-02T23:01:36.054Z,4.88
2023-04-02T23:04:05.459Z,3.20
2023-04-02T23:06:33.753Z,3.05
2023-04-02T23:09:01.700Z,3.97
2023-04-02T23:11:29.662Z,3.35
2023-04-02T23:13:58.317Z,3.47
2023-04-02T23:16:28.019Z,3.08
2023-04-02T23:18:56.575Z,3.55
2023-04-02T23:21:26.211Z,3.03
2023-04-02T23:23:54.287Z,4.35
2023-04-02T23:26:24.938Z,3.80
2023-04-02T23:28:52.865Z,4.07
2023-04-02T23:31:23.013Z,4.93
2023-04-02T23:33:52.474Z,2.88
2023-04-02T23:36:24.794Z,3.60
2023-04-02T23:38:55.610Z,3.20
2023-04-02T23:41:27.106Z,4.15
2023-04-02T23:43:56.374Z,4.07
2023-04-02T23:46:25.330Z,3.35
2023-04-02T23:48:53.894Z,4.28
2023-04-02T23:51:22.786Z,3.55
2023-04-02T23:53:51.802Z,2.97
2023-04-02T23:56:20.191Z,3.65
2023-04-02T23:58:48.899Z,7.07
